Time;durP1;ratioP1;P1;durP2;ratioP2;P2;SDS_P1;SDS_P2;PMS_P1;PMS_P2;Temp;Humidity;BMP_temperature;BMP_pressure;BME280_temperature;BME280_humidity;BME280_pressure;Samples;Min_cycle;Max_cycle;Signal;HPM_P1;HPM_P2
2023/12/10 00:00:19;;;;;;;14.65;5.22;;;;;;;17.25;48.55;99713.66;5025950;28;20048;-37
2023/12/10 00:02:45;;;;;;;12.02;5.45;;;;;;;17.31;48.94;99730.84;5027320;28;20045;-37
2023/12/10 00:05:12;;;;;;;12.00;5.18;;;;;;;17.33;48.60;99731.53;5030622;28;20049;-37
2023/12/10 00:07:39;;;;;;;16.63;5.22;;;;;;;17.36;49.15;99730.31;5031237;28;20049;-38
2023/12/10 00:10:06;;;;;;;12.00;5.47;;;;;;;17.39;48.58;99729.97;5027825;28;20095;-37
2023/12/10 00:12:33;;;;;;;12.32;5.68;;;;;;;17.42;48.64;99725.09;5027463;28;20087;-37
2023/12/10 00:15:00;;;;;;;13.68;6.28;;;;;;;17.44;48.56;99738.31;5020827;28;20468;-37
2023/12/10 00:17:26;;;;;;;11.75;5.78;;;;;;;17.47;49.05;99737.97;5019491;28;20082;-37
2023/12/10 00:19:53;;;;;;;14.07;5.60;;;;;;;17.48;48.85;99742.28;5028828;28;20124;-37
2023/12/10 00:22:21;;;;;;;14.20;5.95;;;;;;;17.49;48.60;99746.66;5025043;28;20056;-37
2023/12/10 00:24:48;;;;;;;13.77;5.53;;;;;;;17.49;48.09;99738.63;5028914;28;20132;-37
2023/12/10 00:27:14;;;;;;;12.35;5.30;;;;;;;17.50;48.35;99732.25;5029970;28;20060;-37
2023/12/10 00:29:41;;;;;;;15.55;5.13;;;;;;;17.50;48.07;99745.66;5052062;28;20072;-37
2023/12/10 00:32:08;;;;;;;15.80;5.50;;;;;;;17.48;48.91;99739.63;5030636;28;20062;-37
2023/12/10 00:34:34;;;;;;;11.55;5.18;;;;;;;17.48;48.88;99737.75;5036137;28;20053;-37
2023/12/10 00:37:01;;;;;;;11.82;5.55;;;;;;;17.47;48.28;99737.97;5036153;28;20045;-38
2023/12/10 00:39:28;;;;;;;11.05;5.40;;;;;;;17.46;48.31;99734.44;5029905;28;20107;-37
2023/12/10 00:41:55;;;;;;;12.63;5.80;;;;;;;17.44;48.47;99738.31;5031164;28;20041;-37
2023/12/10 00:44:22;;;;;;;14.75;6.05;;;;;;;17.43;48.92;99734.78;5030515;28;20096;-37
2023/12/10 00:46:49;;;;;;;14.35;5.25;;;;;;;17.42;48.84;99737.66;5031158;28;20147;-37
2023/12/10 00:49:15;;;;;;;11.60;5.65;;;;;;;17.42;49.04;99745.69;5027718;28;20073;-37
2023/12/10 00:51:42;;;;;;;13.13;4.68;;;;;;;17.41;48.68;99739.50;5032144;28;20357;-37
2023/12/10 00:54:09;;;;;;;15.63;5.72;;;;;;;17.40;48.16;99748.53;5032888;28;20432;-38
2023/12/10 00:56:36;;;;;;;10.75;4.53;;;;;;;17.40;48.34;99747.69;5033810;28;20081;-37
2023/12/10 00:59:02;;;;;;;13.13;5.00;;;;;;;17.40;48.72;99759.25;5033116;28;20045;-38
2023/12/10 01:01:29;;;;;;;12.60;4.97;;;;;;;17.42;48.48;99759.09;5030831;28;20092;-37
2023/12/10 01:03:56;;;;;;;11.88;4.90;;;;;;;17.44;49.01;99749.03;5034372;28;20058;-37
2023/12/10 01:06:23;;;;;;;10.77;4.50;;;;;;;17.47;48.72;99748.66;5031595;28;20049;-38
2023/12/10 01:08:49;;;;;;;11.02;4.95;;;;;;;17.48;48.58;99759.19;5023710;28;20107;-38
2023/12/10 01:11:16;;;;;;;11.10;4.22;;;;;;;17.52;48.68;99767.72;5029776;28;20103;-37
2023/12/10 01:13:43;;;;;;;9.88;4.18;;;;;;;17.51;48.87;99764.22;5028567;28;20053;-37
2023/12/10 01:16:11;;;;;;;11.32;4.57;;;;;;;17.54;48.93;99755.00;5029623;28;20095;-37
2023/12/10 01:18:37;;;;;;;13.02;4.43;;;;;;;17.55;48.15;99762.00;5032231;28;20124;-38
2023/12/10 01:21:09;;;;;;;11.60;4.35;;;;;;;17.57;48.19;99761.81;5029742;28;20049;-37
2023/12/10 01:23:39;;;;;;;10.93;4.72;;;;;;;17.58;48.05;99756.31;5030615;28;20073;-37
2023/12/10 01:26:06;;;;;;;11.00;4.10;;;;;;;17.60;48.66;99764.16;5030956;28;20052;-38
2023/12/10 01:28:33;;;;;;;12.20;4.13;;;;;;;17.61;48.32;99755.09;5027727;28;20049;-37
2023/12/10 01:31:00;;;;;;;15.35;4.72;;;;;;;17.62;48.23;99759.47;5029764;28;20084;-37
2023/12/10 01:33:27;;;;;;;12.55;4.60;;;;;;;17.61;48.27;99768.50;5032125;28;20068;-37
2023/12/10 01:35:54;;;;;;;10.43;4.07;;;;;;;17.60;47.74;99751.59;5027907;28;20049;-37
2023/12/10 01:38:21;;;;;;;11.15;4.75;;;;;;;17.59;48.38;99760.66;5029291;28;20088;-37
2023/12/10 01:40:47;;;;;;;11.38;4.38;;;;;;;17.59;48.41;99762.50;5026990;28;20084;-37
2023/12/10 01:43:17;;;;;;;11.73;4.65;;;;;;;17.58;48.26;99763.53;5029228;28;20053;-37
2023/12/10 01:45:50;;;;;;;10.05;3.88;;;;;;;17.55;48.29;99775.41;5028407;28;20053;-37
2023/12/10 01:48:20;;;;;;;12.50;4.70;;;;;;;17.56;48.61;99773.56;5033158;28;20052;-37
2023/12/10 01:50:48;;;;;;;10.90;4.38;;;;;;;17.56;48.46;99781.59;5031053;28;20042;-38
2023/12/10 01:53:16;;;;;;;9.63;3.75;;;;;;;17.54;48.85;99765.72;5025886;28;20091;-37
2023/12/10 01:55:44;;;;;;;11.63;4.07;;;;;;;17.54;48.55;99799.72;5029279;28;20065;-37
2023/12/10 01:58:11;;;;;;;13.77;4.25;;;;;;;17.51;48.88;99823.16;5025334;28;20426;-37
2023/12/10 02:00:38;;;;;;;13.07;4.05;;;;;;;17.51;47.90;99830.34;5032512;28;20050;-37
2023/12/10 02:03:05;;;;;;;12.55;4.07;;;;;;;17.50;48.26;99813.44;5032596;28;20127;-38
2023/12/10 02:05:32;;;;;;;10.38;3.97;;;;;;;17.48;48.64;99817.31;5029506;28;20059;-37
2023/12/10 02:07:59;;;;;;;10.98;3.92;;;;;;;17.47;48.43;99821.84;5036243;28;20046;-37
2023/12/10 02:10:26;;;;;;;13.52;3.92;;;;;;;17.47;48.85;99815.66;5034873;28;20060;-37
2023/12/10 02:12:53;;;;;;;10.50;3.40;;;;;;;17.45;48.57;99812.31;5031400;28;20084;-37
2023/12/10 02:15:21;;;;;;;10.90;3.88;;;;;;;17.44;49.14;99819.50;5030819;28;20137;-37
2023/12/10 02:17:49;;;;;;;6.75;3.45;;;;;;;17.43;48.82;99806.28;5027526;28;20393;-37
2023/12/10 02:20:17;;;;;;;10.57;3.88;;;;;;;17.40;48.67;99812.81;5027051;28;20044;-37
2023/12/10 02:23:05;;;;;;;11.40;4.20;;;;;;;17.38;48.66;99812.16;5025326;28;20057;-37
2023/12/10 02:25:34;;;;;;;8.35;4.05;;;;;;;17.37;48.65;99820.41;5026987;28;20357;-37
2023/12/10 02:28:05;;;;;;;11.30;4.13;;;;;;;17.36;48.93;99824.88;5029312;28;20044;-37
2023/12/10 02:30:33;;;;;;;11.55;3.95;;;;;;;17.34;49.20;99826.09;5031077;28;20049;-37
2023/12/10 02:33:00;;;;;;;10.52;4.03;;;;;;;17.34;48.68;99828.78;5029529;28;20049;-37
2023/12/10 02:35:27;;;;;;;9.80;3.63;;;;;;;17.36;48.77;99826.75;5029647;28;20091;-37
2023/12/10 02:37:54;;;;;;;11.52;3.97;;;;;;;17.40;48.98;99828.88;5028466;28;20442;-37
2023/12/10 02:40:21;;;;;;;10.90;4.00;;;;;;;17.44;48.76;99837.41;5030788;28;20392;-37
2023/12/10 02:42:48;;;;;;;9.32;3.65;;;;;;;17.47;49.23;99837.06;5032286;28;20053;-37
2023/12/10 02:45:15;;;;;;;9.18;3.72;;;;;;;17.51;48.98;99843.75;5025427;28;20049;-37
2023/12/10 02:47:43;;;;;;;9.65;3.35;;;;;;;17.55;48.72;99841.56;5018242;28;20080;-37
2023/12/10 02:50:10;;;;;;;11.45;4.28;;;;;;;17.57;48.52;99845.75;5020434;28;20041;-37
2023/12/10 02:52:37;;;;;;;10.73;3.47;;;;;;;17.61;48.37;99854.25;5022729;28;20092;-37
2023/12/10 02:55:09;;;;;;;9.45;3.35;;;;;;;17.63;48.34;99853.06;5023488;28;20500;-37
2023/12/10 02:57:36;;;;;;;10.48;3.72;;;;;;;17.64;48.57;99840.50;5026769;28;20099;-37
2023/12/10 03:00:05;;;;;;;13.68;3.75;;;;;;;17.65;48.52;99839.50;5026559;28;20046;-37
2023/12/10 03:02:31;;;;;;;10.60;3.50;;;;;;;17.65;48.56;99859.09;5026014;28;20053;-37
2023/12/10 03:04:58;;;;;;;7.32;3.05;;;;;;;17.63;48.69;99861.09;5024442;28;20069;-37
2023/12/10 03:07:25;;;;;;;11.13;3.65;;;;;;;17.63;48.72;99857.59;5021933;28;20065;-37
2023/12/10 03:09:51;;;;;;;7.75;3.28;;;;;;;17.62;48.53;99863.97;5030736;28;20045;-37
2023/12/10 03:12:18;;;;;;;7.70;2.90;;;;;;;17.60;48.62;99876.69;5026782;28;20333;-37
2023/12/10 03:14:45;;;;;;;11.27;3.30;;;;;;;17.57;49.14;99867.19;5033264;28;20049;-37
2023/12/10 03:17:11;;;;;;;9.75;3.38;;;;;;;17.56;49.06;99875.38;5026510;28;20095;-37
2023/12/10 03:19:38;;;;;;;11.73;3.80;;;;;;;17.55;49.17;99884.44;5029432;28;20119;-37
2023/12/10 03:22:05;;;;;;;8.63;3.17;;;;;;;17.51;48.74;99882.09;5026839;28;20073;-37
2023/12/10 03:24:31;;;;;;;14.68;4.30;;;;;;;17.49;49.23;99892.16;5043514;28;20360;-38
2023/12/10 03:26:58;;;;;;;11.10;3.55;;;;;;;17.47;49.41;99856.66;5024034;28;20052;-37
2023/12/10 03:29:25;;;;;;;12.57;3.58;;;;;;;17.45;49.01;99911.44;5025254;28;20215;-37
2023/12/10 03:31:51;;;;;;;11.90;3.42;;;;;;;17.43;48.75;99892.00;5032540;28;20136;-37
2023/12/10 03:34:18;;;;;;;13.27;3.85;;;;;;;17.41;48.56;99896.72;5024474;28;20128;-37
2023/12/10 03:36:45;;;;;;;13.13;3.92;;;;;;;17.40;49.37;99895.84;5026285;28;20152;-37
2023/12/10 03:39:12;;;;;;;15.45;4.65;;;;;;;17.40;49.35;99911.94;5028741;28;20049;-37
2023/12/10 03:41:38;;;;;;;10.27;3.17;;;;;;;17.41;48.69;99918.97;5028005;28;20661;-37
2023/12/10 03:44:05;;;;;;;12.43;3.67;;;;;;;17.44;49.19;99915.94;5028789;28;20656;-37
2023/12/10 03:46:31;;;;;;;12.32;3.60;;;;;;;17.47;49.08;99947.75;5043243;28;20112;-38
2023/12/10 03:48:58;;;;;;;12.32;3.83;;;;;;;17.51;48.89;99929.47;5027997;28;20041;-37
2023/12/10 03:51:25;;;;;;;13.75;4.00;;;;;;;17.56;48.85;99935.16;5023080;28;20140;-37
2023/12/10 03:53:51;;;;;;;15.60;4.00;;;;;;;17.59;49.40;99944.69;5028896;28;20138;-37
2023/12/10 03:56:18;;;;;;;11.82;3.45;;;;;;;17.63;49.31;99928.09;5029073;28;20042;-37
2023/12/10 03:58:44;;;;;;;11.55;3.65;;;;;;;17.65;48.76;99936.00;5025612;28;20099;-38
2023/12/10 04:01:11;;;;;;;9.73;3.50;;;;;;;17.66;48.78;99961.75;5028427;28;20388;-37
2023/12/10 04:03:38;;;;;;;12.35;3.83;;;;;;;17.65;48.90;99952.06;5025929;28;20132;-37
2023/12/10 04:06:05;;;;;;;14.50;3.97;;;;;;;17.61;48.96;99959.59;5029447;28;20060;-37
2023/12/10 04:08:31;;;;;;;11.32;3.67;;;;;;;17.58;49.27;99967.97;5026063;28;20417;-37
2023/12/10 04:10:58;;;;;;;12.85;3.95;;;;;;;17.55;48.75;99965.63;5036195;28;20119;-38
2023/12/10 04:13:25;;;;;;;13.23;3.22;;;;;;;17.53;48.78;99959.63;5030277;28;20058;-37
2023/12/10 04:15:52;;;;;;;13.95;3.50;;;;;;;17.49;48.94;99972.53;5028164;28;20407;-37
2023/12/10 04:18:18;;;;;;;10.77;3.47;;;;;;;17.47;49.08;99984.41;5024094;28;20422;-37
2023/12/10 04:20:45;;;;;;;11.73;4.03;;;;;;;17.43;49.60;99991.97;5029395;28;20046;-37
2023/12/10 04:23:12;;;;;;;13.20;3.47;;;;;;;17.40;49.67;100010.22;5023978;28;20053;-37
2023/12/10 04:25:39;;;;;;;12.80;3.25;;;;;;;17.38;49.75;99999.66;5023028;28;20103;-37
2023/12/10 04:28:07;;;;;;;17.48;3.78;;;;;;;17.37;48.90;99994.50;5024081;28;20046;-37
2023/12/10 04:30:33;;;;;;;13.38;3.65;;;;;;;17.35;49.61;100005.38;5025224;28;20340;-37
2023/12/10 04:33:00;;;;;;;14.80;3.67;;;;;;;17.35;49.35;100015.25;5025636;28;20099;-37
2023/12/10 04:35:27;;;;;;;16.17;3.83;;;;;;;17.34;49.08;100006.38;5025587;28;20054;-37
2023/12/10 04:37:54;;;;;;;16.95;4.05;;;;;;;17.33;49.53;100011.91;5027230;28;20041;-37
2023/12/10 04:40:21;;;;;;;14.55;3.85;;;;;;;17.32;49.76;100026.28;5029406;28;20072;-37
2023/12/10 04:42:49;;;;;;;11.75;3.67;;;;;;;17.30;49.77;100026.47;5027996;28;20444;-36
2023/12/10 04:45:16;;;;;;;13.60;3.17;;;;;;;17.28;49.35;100023.94;5026671;28;20049;-37
2023/12/10 04:47:43;;;;;;;11.27;3.53;;;;;;;17.27;49.64;100029.47;5023706;28;20097;-37
2023/12/10 04:50:10;;;;;;;14.70;4.30;;;;;;;17.22;49.83;100029.97;5025932;28;20046;-37
2023/12/10 04:52:37;;;;;;;16.42;3.53;;;;;;;17.20;49.72;100031.97;5029327;28;20429;-37
2023/12/10 04:55:04;;;;;;;15.18;4.32;;;;;;;17.23;49.40;100014.75;5028392;28;20045;-37
2023/12/10 04:57:30;;;;;;;14.90;3.25;;;;;;;17.29;49.47;100024.81;5028301;28;20193;-37
2023/12/10 04:59:57;;;;;;;12.30;3.10;;;;;;;17.35;49.26;100018.75;5025975;28;20081;-37
2023/12/10 05:02:23;;;;;;;13.27;3.67;;;;;;;17.41;49.51;100055.59;5024620;28;20503;-37
2023/12/10 05:04:50;;;;;;;15.52;3.40;;;;;;;17.45;49.11;100046.22;5028783;28;20106;-37
2023/12/10 05:07:17;;;;;;;12.75;3.47;;;;;;;17.51;49.24;100052.72;5029712;28;20069;-37
2023/12/10 05:09:43;;;;;;;13.05;3.67;;;;;;;17.54;48.83;100068.47;5027333;28;20104;-37
2023/12/10 05:12:10;;;;;;;16.85;3.13;;;;;;;17.57;49.00;100078.00;5031016;28;20153;-37
2023/12/10 05:14:36;;;;;;;15.38;3.08;;;;;;;17.58;49.10;100075.16;5030473;28;20107;-37
2023/12/10 05:17:03;;;;;;;12.90;3.55;;;;;;;17.59;48.88;100092.91;5033313;28;20053;-36
2023/12/10 05:19:30;;;;;;;13.23;3.83;;;;;;;17.60;48.72;100088.38;5028043;28;20045;-36
2023/12/10 05:21:57;;;;;;;11.68;3.88;;;;;;;17.59;48.46;100092.91;5030436;28;20184;-37
2023/12/10 05:24:23;;;;;;;15.60;4.30;;;;;;;17.58;48.52;100099.28;5025518;28;20344;-36
2023/12/10 05:26:50;;;;;;;13.38;3.38;;;;;;;17.58;48.88;100093.09;5030378;28;20333;-36
2023/12/10 05:29:17;;;;;;;9.30;3.22;;;;;;;17.57;48.76;100102.97;5027197;28;20138;-37
2023/12/10 05:31:43;;;;;;;13.13;3.60;;;;;;;17.56;48.95;100111.16;5029028;28;20123;-37
2023/12/10 05:34:10;;;;;;;11.82;3.20;;;;;;;17.55;49.00;100115.69;5021966;28;20408;-37
2023/12/10 05:36:37;;;;;;;11.45;3.38;;;;;;;17.54;48.87;100132.78;5026634;28;20046;-37
2023/12/10 05:39:03;;;;;;;11.23;4.10;;;;;;;17.53;48.93;100136.47;5030284;28;20082;-37
2023/12/10 05:41:30;;;;;;;10.57;3.90;;;;;;;17.52;48.44;100124.88;5029271;28;20145;-37
2023/12/10 05:43:56;;;;;;;12.95;3.70;;;;;;;17.52;48.94;100148.16;5027830;28;20057;-37
2023/12/10 05:46:23;;;;;;;13.50;3.33;;;;;;;17.51;48.85;100157.22;5029586;28;20048;-37
2023/12/10 05:48:50;;;;;;;9.73;3.35;;;;;;;17.49;49.13;100149.34;5030822;28;20046;-36
2023/12/10 05:51:17;;;;;;;11.02;2.97;;;;;;;17.48;48.95;100163.75;5032099;28;20053;-37
2023/12/10 05:53:43;;;;;;;13.32;3.35;;;;;;;17.46;49.01;100168.44;5033350;28;20042;-37
2023/12/10 05:56:10;;;;;;;11.35;3.05;;;;;;;17.45;48.84;100164.09;5026114;28;20106;-37
2023/12/10 05:58:37;;;;;;;13.13;3.28;;;;;;;17.43;48.95;100195.56;5020101;28;20096;-37
2023/12/10 06:01:04;;;;;;;13.82;3.63;;;;;;;17.41;48.94;100191.38;5024008;28;20046;-37
2023/12/10 06:03:30;;;;;;;11.63;3.17;;;;;;;17.41;49.03;100194.06;5022918;28;20046;-37
2023/12/10 06:05:57;;;;;;;10.30;3.58;;;;;;;17.40;48.94;100193.19;5024634;28;20057;-37
2023/12/10 06:08:24;;;;;;;12.27;3.15;;;;;;;17.40;49.10;100217.31;5034528;28;20059;-36
2023/12/10 06:10:50;;;;;;;11.10;3.25;;;;;;;17.41;49.28;100215.50;5030321;28;20069;-36
2023/12/10 06:13:17;;;;;;;12.65;3.90;;;;;;;17.45;49.37;100219.53;5026876;28;20450;-37
2023/12/10 06:15:44;;;;;;;11.23;3.35;;;;;;;17.49;49.16;100237.78;5028271;28;20099;-36
2023/12/10 06:18:10;;;;;;;15.02;3.80;;;;;;;17.56;49.03;100255.84;5016164;28;20046;-37
2023/12/10 06:20:37;;;;;;;10.48;3.17;;;;;;;17.59;48.44;100242.97;5031329;28;20041;-37
2023/12/10 06:23:04;;;;;;;9.85;3.15;;;;;;;17.63;48.49;100247.00;5032767;28;20128;-37
2023/12/10 06:25:30;;;;;;;9.18;3.35;;;;;;;17.69;48.47;100261.59;5026413;28;20437;-37
2023/12/10 06:27:57;;;;;;;10.95;3.35;;;;;;;17.72;48.59;100250.50;5023357;28;20422;-37
2023/12/10 06:30:23;;;;;;;8.63;2.60;;;;;;;17.75;48.28;100268.97;5032755;28;20085;-37
2023/12/10 06:32:50;;;;;;;12.40;3.60;;;;;;;17.78;47.99;100265.97;5030468;28;20133;-37
2023/12/10 06:35:21;;;;;;;11.80;4.03;;;;;;;17.76;48.25;100278.69;5028610;28;20049;-37
2023/12/10 06:37:49;;;;;;;13.35;3.20;;;;;;;17.75;48.11;100277.03;5025446;28;20045;-37
2023/12/10 06:40:16;;;;;;;11.88;3.40;;;;;;;17.72;48.30;100288.88;5026757;28;20111;-37
2023/12/10 06:42:43;;;;;;;12.68;3.65;;;;;;;17.69;48.11;100294.59;5026401;28;20085;-37
2023/12/10 06:45:11;;;;;;;13.93;3.38;;;;;;;17.66;48.59;100305.63;5029336;28;20081;-37
2023/12/10 06:47:37;;;;;;;13.02;3.03;;;;;;;17.63;48.29;100305.94;5018697;28;20049;-37
2023/12/10 06:50:04;;;;;;;12.18;3.63;;;;;;;17.60;48.47;100281.31;5030301;28;20490;-38
2023/12/10 06:52:31;;;;;;;10.63;3.63;;;;;;;17.57;48.39;100309.31;5031288;28;20345;-37
2023/12/10 06:54:58;;;;;;;10.73;3.17;;;;;;;17.55;48.79;100307.78;5028740;28;20050;-36
2023/12/10 06:57:27;;;;;;;8.75;3.28;;;;;;;17.52;48.75;100311.59;5027316;28;20087;-37
2023/12/10 06:59:54;;;;;;;13.38;3.45;;;;;;;17.49;48.65;100320.00;5025380;28;20046;-37
2023/12/10 07:02:21;;;;;;;12.00;3.30;;;;;;;17.47;48.46;100322.81;5024550;28;20080;-37
2023/12/10 07:04:47;;;;;;;13.82;2.97;;;;;;;17.44;48.72;100333.84;5022778;28;20131;-36
2023/12/10 07:07:14;;;;;;;13.88;3.55;;;;;;;17.41;48.41;100331.53;5025784;28;20100;-37
2023/12/10 07:09:40;;;;;;;12.95;3.25;;;;;;;17.40;48.87;100345.06;5025712;28;20095;-37
2023/12/10 07:12:07;;;;;;;10.23;3.22;;;;;;;17.39;48.80;100343.38;5029996;28;20045;-37
2023/12/10 07:14:34;;;;;;;15.00;3.65;;;;;;;17.36;48.75;100349.91;5029846;28;20129;-37
2023/12/10 07:17:00;;;;;;;10.32;2.97;;;;;;;17.36;48.73;100352.56;5028840;28;20049;-37
2023/12/10 07:19:27;;;;;;;12.95;3.42;;;;;;;17.40;48.87;100370.00;5025424;28;20133;-37
2023/12/10 07:21:55;;;;;;;11.20;3.17;;;;;;;17.46;48.88;100341.75;5025527;28;20037;-37
2023/12/10 07:24:22;;;;;;;11.85;3.53;;;;;;;17.55;48.83;100372.91;5022778;28;20081;-37
2023/12/10 07:26:50;;;;;;;14.13;3.65;;;;;;;17.65;48.00;100372.81;5026853;28;20061;-37
2023/12/10 07:29:16;;;;;;;14.98;3.38;;;;;;;17.72;48.23;100371.13;5031239;28;20049;-37
2023/12/10 07:31:43;;;;;;;12.05;3.03;;;;;;;17.81;48.27;100385.41;5029783;28;20045;-37
2023/12/10 07:34:09;;;;;;;11.68;3.20;;;;;;;17.89;48.07;100385.44;5028821;28;20781;-37
2023/12/10 07:36:36;;;;;;;10.20;3.20;;;;;;;17.97;47.82;100393.53;5029750;28;20497;-37
2023/12/10 07:39:07;;;;;;;12.05;3.38;;;;;;;18.05;47.49;100411.47;5024177;28;20049;-36
2023/12/10 07:41:34;;;;;;;11.13;3.08;;;;;;;18.11;47.48;100411.66;5028720;28;20125;-37
2023/12/10 07:44:01;;;;;;;11.38;3.53;;;;;;;18.19;47.52;100416.19;5022024;28;20089;-36
2023/12/10 07:46:27;;;;;;;11.38;3.75;;;;;;;18.24;47.09;100433.47;5027784;28;20051;-37
2023/12/10 07:48:54;;;;;;;11.52;3.47;;;;;;;18.32;47.20;100447.91;5024491;28;20139;-36
2023/12/10 07:51:21;;;;;;;14.52;3.50;;;;;;;18.37;46.89;100445.53;5028168;28;20053;-37
2023/12/10 07:53:47;;;;;;;13.95;3.50;;;;;;;18.42;47.16;100445.91;5026275;28;20132;-36
2023/12/10 07:56:14;;;;;;;8.00;2.45;;;;;;;18.47;46.84;100468.56;5035781;28;20099;-37
2023/12/10 07:58:41;;;;;;;10.40;3.58;;;;;;;18.51;47.04;100477.13;5027237;28;20127;-37
2023/12/10 08:01:11;;;;;;;8.90;2.90;;;;;;;18.54;46.72;100468.75;5026899;28;20142;-37
2023/12/10 08:03:38;;;;;;;16.45;5.35;;;;;;;18.57;46.98;100478.28;5021400;28;20081;-37
2023/12/10 08:06:05;;;;;;;26.60;10.88;;;;;;;18.58;46.62;100488.88;5028343;28;20056;-37
2023/12/10 08:08:32;;;;;;;25.77;11.85;;;;;;;18.58;46.61;100488.03;5024789;28;20080;-37
2023/12/10 08:10:58;;;;;;;27.05;12.57;;;;;;;18.57;46.77;100489.84;5025707;28;20073;-37
2023/12/10 08:13:25;;;;;;;27.60;13.70;;;;;;;18.56;46.43;100495.41;5021370;28;20053;-37
2023/12/10 08:15:52;;;;;;;24.20;10.85;;;;;;;18.53;46.46;100491.19;5025076;28;20353;-37
2023/12/10 08:18:18;;;;;;;23.20;10.65;;;;;;;18.49;47.07;100498.75;5024223;28;20469;-37
2023/12/10 08:20:45;;;;;;;20.00;9.05;;;;;;;18.47;47.02;100486.50;5028800;28;20053;-37
2023/12/10 08:23:12;;;;;;;22.10;9.40;;;;;;;18.44;46.96;100502.91;5025376;28;20052;-37
2023/12/10 08:25:39;;;;;;;21.00;10.95;;;;;;;18.40;46.89;100507.78;5023791;28;20451;-37
2023/12/10 08:28:05;;;;;;;23.30;10.88;;;;;;;18.36;46.96;100513.63;5022985;28;20457;-37
2023/12/10 08:30:32;;;;;;;21.95;11.82;;;;;;;18.31;46.97;100515.97;5026481;28;20353;-37
2023/12/10 08:32:59;;;;;;;23.35;11.65;;;;;;;18.24;47.29;100513.09;5020306;28;20046;-37
2023/12/10 08:35:26;;;;;;;25.45;12.80;;;;;;;18.19;47.16;100523.50;5020496;28;20057;-37
2023/12/10 08:37:52;;;;;;;26.92;12.73;;;;;;;18.13;47.43;100522.31;5017253;28;20060;-37
2023/12/10 08:40:19;;;;;;;26.13;12.52;;;;;;;18.09;47.65;100523.63;5022457;28;20515;-37
2023/12/10 08:42:46;;;;;;;30.30;13.45;;;;;;;18.04;47.13;100525.94;5024513;28;20049;-37
2023/12/10 08:45:13;;;;;;;24.92;13.40;;;;;;;18.01;47.60;100537.00;5024610;28;20061;-37
2023/12/10 08:47:40;;;;;;;25.05;12.82;;;;;;;17.98;47.42;100540.00;5025313;28;20046;-37
2023/12/10 08:50:07;;;;;;;27.40;14.43;;;;;;;17.97;47.78;100538.34;5029688;28;20436;-37
2023/12/10 08:52:34;;;;;;;31.38;15.20;;;;;;;17.98;47.63;100531.97;5028663;28;20091;-37
2023/12/10 08:55:01;;;;;;;27.83;15.35;;;;;;;18.03;47.74;100544.88;5027255;28;20091;-37
2023/12/10 08:57:28;;;;;;;32.72;17.23;;;;;;;18.06;47.54;100545.41;5029403;28;20330;-37
2023/12/10 09:00:00;;;;;;;33.53;17.48;;;;;;;18.11;47.48;100552.97;5026508;28;20085;-37
2023/12/10 09:02:27;;;;;;;36.05;19.05;;;;;;;18.15;47.64;100563.19;5026993;28;20049;-37
2023/12/10 09:04:54;;;;;;;36.40;19.17;;;;;;;18.19;47.37;100561.88;5028219;28;20523;-37
2023/12/10 09:07:21;;;;;;;36.92;20.92;;;;;;;18.21;47.38;100573.31;5025817;28;20068;-37
2023/12/10 09:09:48;;;;;;;33.75;19.10;;;;;;;18.21;47.28;100575.97;5025565;28;20050;-37
2023/12/10 09:12:27;;;;;;;32.05;18.38;;;;;;;18.22;47.53;100579.50;5028032;28;20463;-37
2023/12/10 09:14:55;;;;;;;37.08;19.70;;;;;;;18.21;47.23;100577.81;5029490;28;20054;-37
2023/12/10 09:17:21;;;;;;;37.53;19.92;;;;;;;18.19;46.91;100579.81;5023825;28;20057;-37
2023/12/10 09:19:48;;;;;;;36.45;20.20;;;;;;;18.15;47.52;100592.72;5025228;28;20492;-37
2023/12/10 09:22:15;;;;;;;34.40;19.90;;;;;;;18.12;47.96;100610.97;5028956;28;20493;-37
2023/12/10 09:24:42;;;;;;;37.55;21.38;;;;;;;18.08;47.55;100609.59;5029710;28;20528;-37
2023/12/10 09:27:09;;;;;;;36.17;19.83;;;;;;;18.05;48.09;100626.00;5023084;28;20377;-37
2023/12/10 09:29:41;;;;;;;36.47;20.80;;;;;;;18.02;47.91;100626.34;5026365;28;20050;-37
2023/12/10 09:32:08;;;;;;;38.35;21.50;;;;;;;17.98;47.83;100618.59;5031269;28;20092;-37
2023/12/10 09:34:35;;;;;;;36.30;19.40;;;;;;;17.96;47.50;100617.06;5029177;28;20056;-37
2023/12/10 09:37:02;;;;;;;37.97;19.45;;;;;;;17.94;47.68;100621.78;5031314;28;20349;-37
2023/12/10 09:39:29;;;;;;;35.42;19.73;;;;;;;17.93;47.88;100617.38;5023146;28;20127;-37
2023/12/10 09:41:56;;;;;;;33.00;18.70;;;;;;;17.93;48.22;100617.38;5032158;28;20524;-37
2023/12/10 09:44:22;;;;;;;37.28;18.17;;;;;;;17.96;48.11;100609.03;5039429;28;20107;-37
2023/12/10 09:46:49;;;;;;;36.15;18.73;;;;;;;17.98;48.07;100599.00;5026365;28;20081;-37
2023/12/10 09:49:17;;;;;;;38.00;20.08;;;;;;;18.00;47.98;100605.03;5025408;28;20049;-37
2023/12/10 09:51:43;;;;;;;40.53;22.08;;;;;;;18.02;48.49;100610.25;5027478;28;20049;-37
2023/12/10 09:54:10;;;;;;;41.70;23.80;;;;;;;18.04;48.52;100603.72;5027032;28;20079;-37
2023/12/10 09:56:38;;;;;;;44.30;25.05;;;;;;;18.07;48.16;100606.06;5029552;28;20111;-37
2023/12/10 09:59:06;;;;;;;43.65;24.60;;;;;;;18.08;47.84;100605.06;5032776;28;20426;-36
2023/12/10 10:01:32;;;;;;;45.15;25.10;;;;;;;18.12;48.67;100611.78;5029850;28;20481;-36
2023/12/10 10:04:00;;;;;;;43.38;24.02;;;;;;;18.15;48.10;100616.00;5030102;28;20050;-36
2023/12/10 10:06:27;;;;;;;43.60;24.50;;;;;;;18.16;48.11;100613.16;5032285;28;20049;-36
2023/12/10 10:08:54;;;;;;;42.33;23.40;;;;;;;18.19;47.73;100615.53;5023805;28;20279;-36
2023/12/10 10:11:20;;;;;;;40.10;23.83;;;;;;;18.20;48.42;100613.69;5022298;28;20084;-36
2023/12/10 10:13:53;;;;;;;47.38;22.92;;;;;;;18.23;48.01;100616.06;5029727;28;20123;-37
2023/12/10 10:16:20;;;;;;;39.33;22.27;;;;;;;18.23;48.06;100618.72;5023785;28;20041;-36
2023/12/10 10:18:47;;;;;;;36.50;20.90;;;;;;;18.24;47.92;100605.16;5027902;28;20080;-36
2023/12/10 10:21:15;;;;;;;39.75;22.60;;;;;;;18.24;47.86;100609.69;5035604;28;20076;-37
2023/12/10 10:23:45;;;;;;;36.70;20.65;;;;;;;18.25;47.73;100605.97;5024810;28;20088;-37
2023/12/10 10:26:12;;;;;;;33.97;19.73;;;;;;;18.25;47.43;100598.81;5038476;28;20045;-36
2023/12/10 10:28:38;;;;;;;36.97;20.88;;;;;;;18.26;47.60;100599.63;5027094;28;20394;-36
2023/12/10 10:31:05;;;;;;;31.88;19.15;;;;;;;18.28;47.63;100588.75;5026978;28;20045;-36
2023/12/10 10:33:32;;;;;;;35.45;19.77;;;;;;;18.25;47.88;100596.13;5029091;28;20042;-36
2023/12/10 10:36:00;;;;;;;34.17;20.48;;;;;;;18.25;47.95;100612.22;5026122;28;20103;-37
2023/12/10 10:38:29;;;;;;;39.45;20.77;;;;;;;18.23;47.96;100614.22;5023535;28;20053;-36
2023/12/10 10:40:58;;;;;;;39.60;21.35;;;;;;;18.23;47.57;100624.09;5023418;28;20049;-36
2023/12/10 10:43:25;;;;;;;37.90;20.52;;;;;;;18.20;47.51;100617.19;5027913;28;20104;-36
2023/12/10 10:45:52;;;;;;;36.72;21.40;;;;;;;18.19;47.56;100623.56;5024032;28;20053;-36
2023/12/10 10:48:25;;;;;;;37.78;21.05;;;;;;;18.17;47.50;100617.53;5026527;28;20053;-36
2023/12/10 10:50:54;;;;;;;44.80;23.13;;;;;;;18.15;47.24;100616.00;5027209;28;20054;-36
2023/12/10 10:53:22;;;;;;;38.90;22.73;;;;;;;18.13;47.52;100610.81;5029395;28;20054;-36
2023/12/10 10:55:49;;;;;;;41.45;23.45;;;;;;;18.10;47.67;100611.13;5026005;28;20057;-36
2023/12/10 10:58:29;;;;;;;45.45;25.20;;;;;;;18.07;47.44;100607.94;5021351;28;20583;-36
2023/12/10 11:00:56;;;;;;;42.60;24.20;;;;;;;18.06;47.67;100604.41;5027961;28;20049;-37
2023/12/10 11:03:26;;;;;;;42.35;25.40;;;;;;;18.03;47.58;100596.66;5027092;28;20049;-37
2023/12/10 11:05:56;;;;;;;48.47;26.52;;;;;;;18.02;47.30;100602.22;5021278;28;20133;-37
2023/12/10 11:08:25;;;;;;;45.88;26.45;;;;;;;18.00;47.48;100597.81;5022437;28;20422;-37
2023/12/10 11:10:59;;;;;;;47.00;27.60;;;;;;;17.99;47.71;100595.31;5024638;28;20046;-37
2023/12/10 11:13:44;;;;;;;53.05;27.95;;;;;;;17.98;47.87;100593.63;5026544;28;20053;-37
2023/12/10 11:16:11;;;;;;;47.10;27.25;;;;;;;17.99;47.88;100601.50;5031914;28;20143;-37
2023/12/10 11:18:56;;;;;;;50.58;27.10;;;;;;;17.98;47.93;100593.63;5025838;28;20111;-36